sensor_id;sensor_type;location;lat;lon;timestamp;P1;durP1;ratioP1;P2;durP2;ratioP2
75616;SDS011;64200;55.426;37.758;2023-07-29T00:02:25;6.07;;;3.37;;
75616;SDS011;64200;55.426;37.758;2023-07-29T00:07:25;3.67;;;2.80;;
75616;SDS011;64200;55.426;37.758;2023-07-29T00:12:26;5.95;;;2.97;;
75616;SDS011;64200;55.426;37.758;2023-07-29T00:17:27;5.25;;;3.70;;
75616;SDS011;64200;55.426;37.758;2023-07-29T00:22:27;4.17;;;3.10;;
75616;SDS011;64200;55.426;37.758;2023-07-29T00:27:28;6.55;;;4.13;;
75616;SDS011;64200;55.426;37.758;2023-07-29T00:32:29;6.97;;;3.73;;
75616;SDS011;64200;55.426;37.758;2023-07-29T00:37:31;4.25;;;3.13;;
75616;SDS011;64200;55.426;37.758;2023-07-29T00:42:32;5.95;;;3.83;;
75616;SDS011;64200;55.426;37.758;2023-07-29T00:47:32;3.97;;;3.58;;
75616;SDS011;64200;55.426;37.758;2023-07-29T00:52:33;6.00;;;3.78;;
75616;SDS011;64200;55.426;37.758;2023-07-29T00:57:34;5.05;;;3.40;;
75616;SDS011;64200;55.426;37.758;2023-07-29T01:02:35;5.45;;;4.40;;
75616;SDS011;64200;55.426;37.758;2023-07-29T01:12:47;5.18;;;3.50;;
75616;SDS011;64200;55.426;37.758;2023-07-29T01:17:55;4.78;;;3.50;;
75616;SDS011;64200;55.426;37.758;2023-07-29T01:23:34;4.03;;;3.50;;
75616;SDS011;64200;55.426;37.758;2023-07-29T01:28:35;5.25;;;3.53;;
75616;SDS011;64200;55.426;37.758;2023-07-29T01:33:40;6.30;;;3.10;;
75616;SDS011;64200;55.426;37.758;2023-07-29T01:38:45;3.85;;;3.20;;
75616;SDS011;64200;55.426;37.758;2023-07-29T01:43:48;2.83;;;2.50;;
75616;SDS011;64200;55.426;37.758;2023-07-29T01:48:49;3.38;;;2.92;;
75616;SDS011;64200;55.426;37.758;2023-07-29T01:53:49;2.60;;;2.40;;
75616;SDS011;64200;55.426;37.758;2023-07-29T01:58:50;3.42;;;2.50;;
75616;SDS011;64200;55.426;37.758;2023-07-29T02:03:51;3.50;;;2.78;;
75616;SDS011;64200;55.426;37.758;2023-07-29T02:08:55;3.08;;;2.50;;
75616;SDS011;64200;55.426;37.758;2023-07-29T02:13:55;4.30;;;2.90;;
75616;SDS011;64200;55.426;37.758;2023-07-29T02:18:56;6.18;;;3.30;;
75616;SDS011;64200;55.426;37.758;2023-07-29T02:23:57;4.83;;;2.77;;
75616;SDS011;64200;55.426;37.758;2023-07-29T02:28:57;3.53;;;3.23;;
75616;SDS011;64200;55.426;37.758;2023-07-29T02:33:58;4.90;;;3.43;;
75616;SDS011;64200;55.426;37.758;2023-07-29T02:38:58;6.28;;;3.63;;
75616;SDS011;64200;55.426;37.758;2023-07-29T02:43:59;5.72;;;3.70;;
75616;SDS011;64200;55.426;37.758;2023-07-29T02:49:01;4.03;;;2.73;;
75616;SDS011;64200;55.426;37.758;2023-07-29T02:54:03;3.85;;;3.17;;
75616;SDS011;64200;55.426;37.758;2023-07-29T02:59:03;3.70;;;3.05;;
75616;SDS011;64200;55.426;37.758;2023-07-29T03:04:05;4.40;;;3.20;;
75616;SDS011;64200;55.426;37.758;2023-07-29T03:09:05;5.20;;;3.45;;
75616;SDS011;64200;55.426;37.758;2023-07-29T03:14:06;4.75;;;3.05;;
75616;SDS011;64200;55.426;37.758;2023-07-29T03:19:06;5.25;;;3.17;;
75616;SDS011;64200;55.426;37.758;2023-07-29T03:24:07;4.87;;;3.00;;
75616;SDS011;64200;55.426;37.758;2023-07-29T03:29:07;4.93;;;3.27;;
75616;SDS011;64200;55.426;37.758;2023-07-29T03:34:08;7.68;;;3.40;;
75616;SDS011;64200;55.426;37.758;2023-07-29T03:39:11;4.45;;;3.35;;
75616;SDS011;64200;55.426;37.758;2023-07-29T03:44:12;5.65;;;3.95;;
75616;SDS011;64200;55.426;37.758;2023-07-29T03:49:12;4.70;;;3.93;;
75616;SDS011;64200;55.426;37.758;2023-07-29T03:54:13;6.20;;;4.13;;
75616;SDS011;64200;55.426;37.758;2023-07-29T03:59:13;7.60;;;3.92;;
75616;SDS011;64200;55.426;37.758;2023-07-29T04:04:14;6.53;;;4.05;;
75616;SDS011;64200;55.426;37.758;2023-07-29T04:09:15;6.57;;;4.50;;
75616;SDS011;64200;55.426;37.758;2023-07-29T04:14:15;7.00;;;4.10;;
75616;SDS011;64200;55.426;37.758;2023-07-29T04:19:16;4.43;;;3.73;;
75616;SDS011;64200;55.426;37.758;2023-07-29T04:24:16;8.20;;;4.68;;
75616;SDS011;64200;55.426;37.758;2023-07-29T04:29:17;8.82;;;3.90;;
75616;SDS011;64200;55.426;37.758;2023-07-29T04:34:18;5.17;;;3.13;;
75616;SDS011;64200;55.426;37.758;2023-07-29T04:39:19;4.10;;;3.20;;
75616;SDS011;64200;55.426;37.758;2023-07-29T04:44:19;5.78;;;3.33;;
75616;SDS011;64200;55.426;37.758;2023-07-29T04:49:21;3.72;;;3.20;;
75616;SDS011;64200;55.426;37.758;2023-07-29T04:54:22;2.90;;;2.50;;
75616;SDS011;64200;55.426;37.758;2023-07-29T04:59:22;4.30;;;2.75;;
75616;SDS011;64200;55.426;37.758;2023-07-29T05:04:23;3.47;;;2.65;;
75616;SDS011;64200;55.426;37.758;2023-07-29T05:09:24;3.72;;;2.65;;
75616;SDS011;64200;55.426;37.758;2023-07-29T05:14:24;3.23;;;2.77;;
75616;SDS011;64200;55.426;37.758;2023-07-29T05:19:25;3.97;;;2.83;;
75616;SDS011;64200;55.426;37.758;2023-07-29T05:24:25;3.42;;;2.38;;
75616;SDS011;64200;55.426;37.758;2023-07-29T05:29:26;4.25;;;2.38;;
75616;SDS011;64200;55.426;37.758;2023-07-29T05:34:27;4.70;;;2.58;;
75616;SDS011;64200;55.426;37.758;2023-07-29T05:39:27;2.60;;;2.07;;
75616;SDS011;64200;55.426;37.758;2023-07-29T05:44:28;3.47;;;2.50;;
75616;SDS011;64200;55.426;37.758;2023-07-29T05:49:30;4.47;;;2.70;;
75616;SDS011;64200;55.426;37.758;2023-07-29T05:54:31;6.25;;;3.20;;
75616;SDS011;64200;55.426;37.758;2023-07-29T05:59:31;6.63;;;3.47;;
75616;SDS011;64200;55.426;37.758;2023-07-29T06:04:32;5.23;;;3.23;;
75616;SDS011;64200;55.426;37.758;2023-07-29T06:09:32;5.50;;;3.37;;
75616;SDS011;64200;55.426;37.758;2023-07-29T06:14:33;3.92;;;2.97;;
75616;SDS011;64200;55.426;37.758;2023-07-29T06:19:33;4.60;;;3.00;;
75616;SDS011;64200;55.426;37.758;2023-07-29T06:24:34;4.43;;;3.55;;
75616;SDS011;64200;55.426;37.758;2023-07-29T06:29:35;5.07;;;3.55;;
75616;SDS011;64200;55.426;37.758;2023-07-29T06:34:35;4.15;;;3.20;;
75616;SDS011;64200;55.426;37.758;2023-07-29T06:39:36;4.95;;;3.22;;
75616;SDS011;64200;55.426;37.758;2023-07-29T06:44:36;4.70;;;3.20;;
75616;SDS011;64200;55.426;37.758;2023-07-29T06:49:37;4.20;;;3.00;;
75616;SDS011;64200;55.426;37.758;2023-07-29T06:54:37;2.90;;;2.60;;
75616;SDS011;64200;55.426;37.758;2023-07-29T06:59:38;4.17;;;3.30;;
75616;SDS011;64200;55.426;37.758;2023-07-29T07:04:38;4.13;;;3.10;;
75616;SDS011;64200;55.426;37.758;2023-07-29T07:09:39;7.27;;;4.10;;
75616;SDS011;64200;55.426;37.758;2023-07-29T07:14:39;6.63;;;4.57;;
75616;SDS011;64200;55.426;37.758;2023-07-29T07:19:39;4.60;;;3.00;;
75616;SDS011;64200;55.426;37.758;2023-07-29T07:24:40;4.55;;;2.78;;
75616;SDS011;64200;55.426;37.758;2023-07-29T07:29:41;4.57;;;3.00;;
75616;SDS011;64200;55.426;37.758;2023-07-29T07:34:41;4.10;;;3.13;;
75616;SDS011;64200;55.426;37.758;2023-07-29T07:39:42;5.93;;;3.67;;
75616;SDS011;64200;55.426;37.758;2023-07-29T07:44:42;4.90;;;3.10;;
75616;SDS011;64200;55.426;37.758;2023-07-29T07:49:42;5.27;;;3.47;;
75616;SDS011;64200;55.426;37.758;2023-07-29T07:54:43;7.23;;;3.80;;
75616;SDS011;64200;55.426;37.758;2023-07-29T07:59:45;5.15;;;4.07;;
75616;SDS011;64200;55.426;37.758;2023-07-29T08:04:45;5.80;;;3.67;;
75616;SDS011;64200;55.426;37.758;2023-07-29T08:09:46;6.85;;;3.75;;
75616;SDS011;64200;55.426;37.758;2023-07-29T08:14:46;4.80;;;3.40;;
75616;SDS011;64200;55.426;37.758;2023-07-29T08:19:47;9.93;;;4.57;;
75616;SDS011;64200;55.426;37.758;2023-07-29T08:24:47;9.13;;;4.28;;
75616;SDS011;64200;55.426;37.758;2023-07-29T08:29:48;6.93;;;4.57;;
75616;SDS011;64200;55.426;37.758;2023-07-29T08:34:48;5.65;;;4.00;;
75616;SDS011;64200;55.426;37.758;2023-07-29T08:39:51;4.43;;;3.73;;
75616;SDS011;64200;55.426;37.758;2023-07-29T08:49:57;8.05;;;3.72;;
75616;SDS011;64200;55.426;37.758;2023-07-29T08:55:01;6.60;;;4.53;;
75616;SDS011;64200;55.426;37.758;2023-07-29T09:00:03;6.90;;;4.32;;
75616;SDS011;64200;55.426;37.758;2023-07-29T09:05:04;5.00;;;3.80;;
75616;SDS011;64200;55.426;37.758;2023-07-29T09:10:08;6.25;;;4.65;;
75616;SDS011;64200;55.426;37.758;2023-07-29T09:20:10;7.33;;;4.70;;
75616;SDS011;64200;55.426;37.758;2023-07-29T09:25:12;4.68;;;4.20;;
75616;SDS011;64200;55.426;37.758;2023-07-29T09:30:16;7.63;;;4.28;;
75616;SDS011;64200;55.426;37.758;2023-07-29T09:35:17;6.13;;;3.97;;
75616;SDS011;64200;55.426;37.758;2023-07-29T09:40:20;5.03;;;3.38;;
75616;SDS011;64200;55.426;37.758;2023-07-29T09:45:25;5.38;;;3.22;;
75616;SDS011;64200;55.426;37.758;2023-07-29T09:50:27;6.10;;;3.72;;
75616;SDS011;64200;55.426;37.758;2023-07-29T09:55:27;5.45;;;3.17;;
75616;SDS011;64200;55.426;37.758;2023-07-29T10:00:28;5.70;;;3.10;;
75616;SDS011;64200;55.426;37.758;2023-07-29T10:05:35;5.28;;;3.17;;
75616;SDS011;64200;55.426;37.758;2023-07-29T10:10:36;4.80;;;3.65;;
75616;SDS011;64200;55.426;37.758;2023-07-29T10:15:37;5.82;;;3.05;;
75616;SDS011;64200;55.426;37.758;2023-07-29T10:20:37;4.57;;;3.37;;
75616;SDS011;64200;55.426;37.758;2023-07-29T10:25:41;9.02;;;5.22;;
75616;SDS011;64200;55.426;37.758;2023-07-29T10:30:46;8.52;;;3.92;;
75616;SDS011;64200;55.426;37.758;2023-07-29T10:35:47;10.63;;;6.60;;
75616;SDS011;64200;55.426;37.758;2023-07-29T10:40:54;9.13;;;5.22;;
75616;SDS011;64200;55.426;37.758;2023-07-29T10:45:57;19.15;;;7.85;;
75616;SDS011;64200;55.426;37.758;2023-07-29T10:56:34;6.72;;;4.18;;
75616;SDS011;64200;55.426;37.758;2023-07-29T11:01:35;5.45;;;3.22;;
75616;SDS011;64200;55.426;37.758;2023-07-29T11:17:37;6.68;;;3.67;;
75616;SDS011;64200;55.426;37.758;2023-07-29T11:22:39;4.60;;;3.30;;
75616;SDS011;64200;55.426;37.758;2023-07-29T11:27:41;5.25;;;3.60;;
75616;SDS011;64200;55.426;37.758;2023-07-29T11:32:42;8.48;;;4.35;;
75616;SDS011;64200;55.426;37.758;2023-07-29T11:37:45;5.70;;;3.83;;
75616;SDS011;64200;55.426;37.758;2023-07-29T11:42:48;8.13;;;4.47;;
75616;SDS011;64200;55.426;37.758;2023-07-29T11:47:50;7.43;;;4.47;;
75616;SDS011;64200;55.426;37.758;2023-07-29T11:52:51;7.67;;;4.63;;
75616;SDS011;64200;55.426;37.758;2023-07-29T11:57:52;12.13;;;5.90;;
75616;SDS011;64200;55.426;37.758;2023-07-29T12:02:53;7.47;;;4.53;;
75616;SDS011;64200;55.426;37.758;2023-07-29T12:07:54;7.07;;;4.57;;
75616;SDS011;64200;55.426;37.758;2023-07-29T12:12:55;5.90;;;4.25;;
75616;SDS011;64200;55.426;37.758;2023-07-29T12:17:56;7.03;;;4.60;;
75616;SDS011;64200;55.426;37.758;2023-07-29T12:22:58;7.75;;;4.60;;
75616;SDS011;64200;55.426;37.758;2023-07-29T12:28:05;5.35;;;3.67;;
75616;SDS011;64200;55.426;37.758;2023-07-29T12:33:06;5.72;;;4.07;;
75616;SDS011;64200;55.426;37.758;2023-07-29T12:38:07;6.20;;;3.72;;
75616;SDS011;64200;55.426;37.758;2023-07-29T12:43:08;5.85;;;4.07;;
75616;SDS011;64200;55.426;37.758;2023-07-29T12:48:08;6.72;;;4.53;;
75616;SDS011;64200;55.426;37.758;2023-07-29T12:53:09;6.28;;;4.18;;
75616;SDS011;64200;55.426;37.758;2023-07-29T12:58:10;8.57;;;4.22;;
75616;SDS011;64200;55.426;37.758;2023-07-29T13:03:11;6.87;;;4.60;;
75616;SDS011;64200;55.426;37.758;2023-07-29T13:08:11;6.27;;;4.30;;
75616;SDS011;64200;55.426;37.758;2023-07-29T13:13:12;8.07;;;4.40;;
75616;SDS011;64200;55.426;37.758;2023-07-29T13:18:12;8.38;;;5.07;;
75616;SDS011;64200;55.426;37.758;2023-07-29T13:23:13;10.02;;;5.18;;
75616;SDS011;64200;55.426;37.758;2023-07-29T13:28:15;6.78;;;5.30;;
75616;SDS011;64200;55.426;37.758;2023-07-29T13:33:16;8.23;;;5.40;;
75616;SDS011;64200;55.426;37.758;2023-07-29T13:38:17;9.80;;;6.13;;
75616;SDS011;64200;55.426;37.758;2023-07-29T13:43:17;9.38;;;6.00;;
75616;SDS011;64200;55.426;37.758;2023-07-29T13:48:18;10.90;;;5.20;;
75616;SDS011;64200;55.426;37.758;2023-07-29T13:53:19;8.32;;;5.75;;
75616;SDS011;64200;55.426;37.758;2023-07-29T13:58:20;8.23;;;4.85;;
75616;SDS011;64200;55.426;37.758;2023-07-29T14:03:20;7.73;;;5.10;;
75616;SDS011;64200;55.426;37.758;2023-07-29T14:08:21;6.35;;;5.05;;
75616;SDS011;64200;55.426;37.758;2023-07-29T14:13:23;8.63;;;5.22;;
75616;SDS011;64200;55.426;37.758;2023-07-29T14:18:23;9.93;;;6.37;;
75616;SDS011;64200;55.426;37.758;2023-07-29T14:23:24;10.93;;;6.10;;
75616;SDS011;64200;55.426;37.758;2023-07-29T14:28:24;7.38;;;5.47;;
75616;SDS011;64200;55.426;37.758;2023-07-29T14:33:25;10.23;;;5.45;;
75616;SDS011;64200;55.426;37.758;2023-07-29T14:38:26;8.43;;;5.47;;
75616;SDS011;64200;55.426;37.758;2023-07-29T14:43:27;9.47;;;5.27;;
75616;SDS011;64200;55.426;37.758;2023-07-29T14:48:27;9.75;;;5.35;;
75616;SDS011;64200;55.426;37.758;2023-07-29T14:53:29;8.65;;;4.70;;
75616;SDS011;64200;55.426;37.758;2023-07-29T14:58:29;8.97;;;4.60;;
75616;SDS011;64200;55.426;37.758;2023-07-29T15:03:30;7.05;;;4.72;;
75616;SDS011;64200;55.426;37.758;2023-07-29T15:08:31;7.65;;;3.92;;
75616;SDS011;64200;55.426;37.758;2023-07-29T15:13:31;6.33;;;3.80;;
75616;SDS011;64200;55.426;37.758;2023-07-29T15:18:34;6.13;;;3.90;;
75616;SDS011;64200;55.426;37.758;2023-07-29T15:23:35;8.02;;;4.60;;
75616;SDS011;64200;55.426;37.758;2023-07-29T15:28:36;5.43;;;3.50;;
75616;SDS011;64200;55.426;37.758;2023-07-29T15:33:37;6.28;;;3.83;;
75616;SDS011;64200;55.426;37.758;2023-07-29T15:38:37;8.18;;;4.85;;
75616;SDS011;64200;55.426;37.758;2023-07-29T15:43:38;6.33;;;3.93;;
75616;SDS011;64200;55.426;37.758;2023-07-29T15:48:38;5.57;;;3.93;;
75616;SDS011;64200;55.426;37.758;2023-07-29T15:53:45;7.53;;;3.65;;
75616;SDS011;64200;55.426;37.758;2023-07-29T15:58:45;5.63;;;3.63;;
75616;SDS011;64200;55.426;37.758;2023-07-29T16:03:46;11.52;;;3.95;;
75616;SDS011;64200;55.426;37.758;2023-07-29T16:08:46;8.00;;;3.60;;
75616;SDS011;64200;55.426;37.758;2023-07-29T16:13:47;7.78;;;4.97;;
75616;SDS011;64200;55.426;37.758;2023-07-29T16:18:48;11.07;;;6.47;;
75616;SDS011;64200;55.426;37.758;2023-07-29T16:23:48;10.63;;;5.57;;
75616;SDS011;64200;55.426;37.758;2023-07-29T16:28:52;8.65;;;4.57;;
75616;SDS011;64200;55.426;37.758;2023-07-29T16:33:53;5.85;;;4.78;;
75616;SDS011;64200;55.426;37.758;2023-07-29T16:38:53;7.53;;;3.97;;
75616;SDS011;64200;55.426;37.758;2023-07-29T16:43:54;5.37;;;3.83;;
75616;SDS011;64200;55.426;37.758;2023-07-29T16:48:54;7.30;;;4.10;;
75616;SDS011;64200;55.426;37.758;2023-07-29T16:53:55;9.60;;;5.00;;
75616;SDS011;64200;55.426;37.758;2023-07-29T16:58:56;8.60;;;4.95;;
75616;SDS011;64200;55.426;37.758;2023-07-29T17:03:56;8.00;;;4.87;;
75616;SDS011;64200;55.426;37.758;2023-07-29T17:08:57;9.40;;;6.20;;
75616;SDS011;64200;55.426;37.758;2023-07-29T17:13:57;14.10;;;7.00;;
75616;SDS011;64200;55.426;37.758;2023-07-29T17:18:58;14.07;;;10.52;;
75616;SDS011;64200;55.426;37.758;2023-07-29T17:23:58;14.57;;;7.68;;
75616;SDS011;64200;55.426;37.758;2023-07-29T17:28:59;15.95;;;7.60;;
75616;SDS011;64200;55.426;37.758;2023-07-29T17:34:00;16.92;;;10.35;;
75616;SDS011;64200;55.426;37.758;2023-07-29T17:39:01;10.07;;;6.93;;
75616;SDS011;64200;55.426;37.758;2023-07-29T17:44:01;24.03;;;9.30;;
75616;SDS011;64200;55.426;37.758;2023-07-29T17:49:02;20.55;;;9.50;;
75616;SDS011;64200;55.426;37.758;2023-07-29T17:54:02;33.22;;;11.25;;
75616;SDS011;64200;55.426;37.758;2023-07-29T17:59:03;24.77;;;9.15;;
75616;SDS011;64200;55.426;37.758;2023-07-29T18:04:03;19.95;;;10.02;;
75616;SDS011;64200;55.426;37.758;2023-07-29T18:09:04;17.98;;;9.68;;
75616;SDS011;64200;55.426;37.758;2023-07-29T18:14:04;17.45;;;8.77;;
75616;SDS011;64200;55.426;37.758;2023-07-29T18:19:05;18.90;;;10.30;;
75616;SDS011;64200;55.426;37.758;2023-07-29T18:24:05;26.23;;;13.30;;
75616;SDS011;64200;55.426;37.758;2023-07-29T18:29:06;25.23;;;13.63;;
75616;SDS011;64200;55.426;37.758;2023-07-29T18:34:06;21.10;;;10.35;;
75616;SDS011;64200;55.426;37.758;2023-07-29T18:39:08;16.63;;;9.70;;
75616;SDS011;64200;55.426;37.758;2023-07-29T18:44:08;15.13;;;8.82;;
75616;SDS011;64200;55.426;37.758;2023-07-29T18:49:09;13.55;;;6.97;;
75616;SDS011;64200;55.426;37.758;2023-07-29T18:54:10;12.38;;;7.65;;
75616;SDS011;64200;55.426;37.758;2023-07-29T18:59:10;12.07;;;7.45;;
75616;SDS011;64200;55.426;37.758;2023-07-29T19:04:11;14.98;;;7.10;;
75616;SDS011;64200;55.426;37.758;2023-07-29T19:09:13;15.05;;;8.93;;
75616;SDS011;64200;55.426;37.758;2023-07-29T19:14:15;15.00;;;7.97;;
75616;SDS011;64200;55.426;37.758;2023-07-29T19:19:15;22.45;;;9.32;;
75616;SDS011;64200;55.426;37.758;2023-07-29T19:24:16;14.18;;;8.90;;
75616;SDS011;64200;55.426;37.758;2023-07-29T19:29:16;14.73;;;8.20;;
75616;SDS011;64200;55.426;37.758;2023-07-29T19:34:17;14.65;;;7.70;;
75616;SDS011;64200;55.426;37.758;2023-07-29T19:39:18;15.10;;;6.70;;
75616;SDS011;64200;55.426;37.758;2023-07-29T19:44:18;15.95;;;7.85;;
75616;SDS011;64200;55.426;37.758;2023-07-29T19:49:19;18.75;;;10.27;;
75616;SDS011;64200;55.426;37.758;2023-07-29T19:54:20;17.73;;;9.18;;
75616;SDS011;64200;55.426;37.758;2023-07-29T19:59:20;16.77;;;8.87;;
75616;SDS011;64200;55.426;37.758;2023-07-29T20:04:21;15.43;;;8.65;;
75616;SDS011;64200;55.426;37.758;2023-07-29T20:09:21;19.40;;;11.68;;
75616;SDS011;64200;55.426;37.758;2023-07-29T20:14:23;18.30;;;10.73;;
75616;SDS011;64200;55.426;37.758;2023-07-29T20:19:23;12.85;;;8.18;;
75616;SDS011;64200;55.426;37.758;2023-07-29T20:24:24;13.07;;;8.03;;
75616;SDS011;64200;55.426;37.758;2023-07-29T20:29:27;18.45;;;9.82;;
75616;SDS011;64200;55.426;37.758;2023-07-29T20:34:28;15.00;;;7.60;;
75616;SDS011;64200;55.426;37.758;2023-07-29T20:39:29;16.52;;;8.40;;
75616;SDS011;64200;55.426;37.758;2023-07-29T20:44:30;14.27;;;8.37;;
75616;SDS011;64200;55.426;37.758;2023-07-29T20:49:31;19.10;;;9.27;;
75616;SDS011;64200;55.426;37.758;2023-07-29T20:54:32;27.08;;;12.40;;
75616;SDS011;64200;55.426;37.758;2023-07-29T20:59:32;16.40;;;8.43;;
75616;SDS011;64200;55.426;37.758;2023-07-29T21:04:33;17.10;;;8.85;;
75616;SDS011;64200;55.426;37.758;2023-07-29T21:09:34;11.33;;;7.57;;
75616;SDS011;64200;55.426;37.758;2023-07-29T21:14:36;13.63;;;7.35;;
75616;SDS011;64200;55.426;37.758;2023-07-29T21:19:36;14.70;;;8.77;;
75616;SDS011;64200;55.426;37.758;2023-07-29T21:24:37;21.73;;;12.25;;
75616;SDS011;64200;55.426;37.758;2023-07-29T21:29:37;34.40;;;20.00;;
75616;SDS011;64200;55.426;37.758;2023-07-29T21:34:38;28.80;;;18.85;;
75616;SDS011;64200;55.426;37.758;2023-07-29T21:39:38;49.17;;;26.00;;
75616;SDS011;64200;55.426;37.758;2023-07-29T21:44:39;30.83;;;20.23;;
75616;SDS011;64200;55.426;37.758;2023-07-29T21:49:39;27.05;;;16.35;;
75616;SDS011;64200;55.426;37.758;2023-07-29T21:54:40;17.33;;;10.85;;
75616;SDS011;64200;55.426;37.758;2023-07-29T21:59:41;11.70;;;8.02;;
75616;SDS011;64200;55.426;37.758;2023-07-29T22:04:41;15.70;;;9.57;;
75616;SDS011;64200;55.426;37.758;2023-07-29T22:09:42;15.30;;;7.43;;
75616;SDS011;64200;55.426;37.758;2023-07-29T22:14:43;14.97;;;9.00;;
75616;SDS011;64200;55.426;37.758;2023-07-29T22:19:46;16.85;;;9.55;;
75616;SDS011;64200;55.426;37.758;2023-07-29T22:24:47;14.20;;;8.80;;
75616;SDS011;64200;55.426;37.758;2023-07-29T22:29:51;17.15;;;10.45;;
75616;SDS011;64200;55.426;37.758;2023-07-29T22:34:52;19.92;;;11.02;;
75616;SDS011;64200;55.426;37.758;2023-07-29T22:39:52;18.23;;;10.03;;
75616;SDS011;64200;55.426;37.758;2023-07-29T22:44:53;21.33;;;10.98;;
75616;SDS011;64200;55.426;37.758;2023-07-29T22:49:53;18.73;;;11.47;;
75616;SDS011;64200;55.426;37.758;2023-07-29T22:54:54;27.40;;;14.40;;
75616;SDS011;64200;55.426;37.758;2023-07-29T22:59:54;23.65;;;15.63;;
75616;SDS011;64200;55.426;37.758;2023-07-29T23:04:55;17.57;;;11.67;;
75616;SDS011;64200;55.426;37.758;2023-07-29T23:09:56;16.92;;;10.43;;
75616;SDS011;64200;55.426;37.758;2023-07-29T23:14:56;19.30;;;12.23;;
75616;SDS011;64200;55.426;37.758;2023-07-29T23:19:58;34.55;;;19.67;;
75616;SDS011;64200;55.426;37.758;2023-07-29T23:24:58;27.10;;;16.13;;
75616;SDS011;64200;55.426;37.758;2023-07-29T23:30:01;26.13;;;12.38;;
75616;SDS011;64200;55.426;37.758;2023-07-29T23:35:03;17.88;;;12.35;;
75616;SDS011;64200;55.426;37.758;2023-07-29T23:40:04;16.77;;;10.20;;
75616;SDS011;64200;55.426;37.758;2023-07-29T23:45:05;16.58;;;10.10;;
75616;SDS011;64200;55.426;37.758;2023-07-29T23:50:06;14.77;;;7.97;;
75616;SDS011;64200;55.426;37.758;2023-07-29T23:55:07;14.93;;;8.10;;
